createdAt,value
2023-01-03T00:00:28.059Z,0
2023-01-03T00:01:28.662Z,0
2023-01-03T00:02:29.320Z,0
2023-01-03T00:03:29.938Z,0
2023-01-03T00:04:30.577Z,0
2023-01-03T00:05:31.142Z,0
2023-01-03T00:06:31.730Z,0
2023-01-03T00:07:32.326Z,0
2023-01-03T00:08:32.923Z,0
2023-01-03T00:09:33.559Z,0
2023-01-03T00:10:34.103Z,0
2023-01-03T00:11:34.698Z,0
2023-01-03T00:12:35.289Z,0
2023-01-03T00:13:35.906Z,0
2023-01-03T00:14:36.499Z,0
2023-01-03T00:15:37.091Z,0
2023-01-03T00:16:37.732Z,0
2023-01-03T00:17:38.291Z,0
2023-01-03T00:18:38.897Z,0
2023-01-03T00:19:39.493Z,0
2023-01-03T00:20:40.084Z,0
2023-01-03T00:21:40.689Z,0
2023-01-03T00:22:41.292Z,0
2023-01-03T00:23:41.909Z,0
2023-01-03T00:24:42.497Z,0
2023-01-03T00:25:43.109Z,0
2023-01-03T00:26:43.773Z,0
2023-01-03T00:27:44.308Z,0
2023-01-03T00:28:44.923Z,0
2023-01-03T00:29:45.545Z,0
2023-01-03T00:30:46.153Z,0
2023-01-03T00:31:46.718Z,0
2023-01-03T00:32:47.322Z,0
2023-01-03T00:33:47.934Z,0
2023-01-03T00:34:48.529Z,0
2023-01-03T00:35:49.123Z,0
2023-01-03T00:36:49.733Z,0
2023-01-03T00:37:50.381Z,0
2023-01-03T00:38:51.034Z,0
2023-01-03T00:39:51.634Z,0
2023-01-03T00:40:52.224Z,0
2023-01-03T00:41:52.814Z,0
2023-01-03T00:42:53.408Z,0
2023-01-03T00:43:54.018Z,0
2023-01-03T00:44:54.619Z,0
2023-01-03T00:45:55.245Z,0
2023-01-03T00:46:55.821Z,0
2023-01-03T00:47:56.398Z,0
2023-01-03T00:48:57.001Z,0
2023-01-03T00:49:57.598Z,0
2023-01-03T00:50:58.203Z,0
2023-01-03T00:51:58.819Z,0
2023-01-03T00:52:59.389Z,0
2023-01-03T00:53:59.986Z,0
2023-01-03T00:55:00.598Z,0
2023-01-03T00:56:01.172Z,0
2023-01-03T00:57:01.771Z,0
2023-01-03T00:58:02.376Z,0
2023-01-03T00:59:02.955Z,0
2023-01-03T01:00:03.547Z,0
2023-01-03T01:01:04.160Z,0
2023-01-03T01:02:04.899Z,0
2023-01-03T01:03:05.747Z,0
2023-01-03T01:04:06.445Z,0
2023-01-03T01:05:07.035Z,0
2023-01-03T01:06:07.631Z,0
2023-01-03T01:07:08.225Z,0
2023-01-03T01:08:08.820Z,0
2023-01-03T01:09:09.417Z,0
2023-01-03T01:10:10.012Z,0
2023-01-03T01:11:10.609Z,0
2023-01-03T01:12:11.201Z,0
2023-01-03T01:13:11.812Z,0
2023-01-03T01:14:12.411Z,0
2023-01-03T01:15:13.032Z,0
2023-01-03T01:16:13.829Z,0
2023-01-03T01:17:17.874Z,0
2023-01-03T01:18:15.982Z,0
2023-01-03T01:19:16.572Z,0
2023-01-03T01:20:17.168Z,0
2023-01-03T01:21:17.768Z,0
2023-01-03T01:22:18.361Z,0
2023-01-03T01:23:18.976Z,0
2023-01-03T01:24:19.564Z,0
2023-01-03T01:25:20.181Z,0
2023-01-03T01:26:20.751Z,0
2023-01-03T01:27:21.347Z,0
2023-01-03T01:28:21.988Z,0
2023-01-03T01:29:22.561Z,0
2023-01-03T01:30:23.152Z,0
2023-01-03T01:31:23.837Z,0
2023-01-03T01:32:24.440Z,0
2023-01-03T01:33:25.035Z,0
2023-01-03T01:34:25.627Z,0
2023-01-03T01:35:26.226Z,0
2023-01-03T01:36:26.819Z,0
2023-01-03T01:37:27.417Z,0
2023-01-03T01:38:28.013Z,0
2023-01-03T01:39:28.641Z,0
2023-01-03T01:40:29.195Z,0
2023-01-03T01:41:29.796Z,0
2023-01-03T01:42:31.110Z,0
2023-01-03T01:43:31.847Z,0
2023-01-03T01:44:32.438Z,0
2023-01-03T01:45:33.053Z,0
2023-01-03T01:46:33.690Z,0
2023-01-03T01:47:34.330Z,0
2023-01-03T01:48:34.919Z,0
2023-01-03T01:49:35.556Z,0
2023-01-03T01:50:36.109Z,0
2023-01-03T01:51:36.707Z,0
2023-01-03T01:52:37.333Z,0
2023-01-03T01:53:37.919Z,0
2023-01-03T01:54:38.504Z,0
2023-01-03T01:55:39.098Z,0
2023-01-03T01:56:39.698Z,0
2023-01-03T01:57:40.293Z,0
2023-01-03T01:58:40.885Z,0
2023-01-03T01:59:41.484Z,0
2023-01-03T02:00:42.095Z,0
2023-01-03T02:01:42.849Z,0
2023-01-03T02:02:43.608Z,0
2023-01-03T02:03:44.321Z,0
2023-01-03T02:04:44.893Z,0
2023-01-03T02:05:45.489Z,0
2023-01-03T02:06:46.087Z,0
2023-01-03T02:07:46.679Z,0
2023-01-03T02:08:47.271Z,0
2023-01-03T02:09:47.867Z,0
2023-01-03T02:10:48.464Z,0
2023-01-03T02:11:49.071Z,0
2023-01-03T02:12:49.665Z,0
2023-01-03T02:13:50.276Z,0
2023-01-03T02:14:50.873Z,0
2023-01-03T02:15:51.549Z,0
2023-01-03T02:16:52.109Z,0
2023-01-03T02:17:52.704Z,0
2023-01-03T02:18:53.298Z,0
2023-01-03T02:19:53.895Z,0
2023-01-03T02:20:54.487Z,0
2023-01-03T02:21:55.101Z,0
2023-01-03T02:22:55.674Z,0
2023-01-03T02:23:56.289Z,0
2023-01-03T02:24:56.883Z,0
2023-01-03T02:25:57.479Z,0
2023-01-03T02:26:58.080Z,0
2023-01-03T02:27:58.688Z,0
2023-01-03T02:28:59.279Z,0
2023-01-03T02:29:59.877Z,0
2023-01-03T02:31:00.505Z,0
2023-01-03T02:32:01.091Z,0
2023-01-03T02:33:01.679Z,0
2023-01-03T02:34:02.289Z,0
2023-01-03T02:35:02.865Z,0
2023-01-03T02:36:03.480Z,0
2023-01-03T02:37:04.065Z,0
2023-01-03T02:38:04.667Z,0
2023-01-03T02:39:05.279Z,0
2023-01-03T02:40:05.873Z,0
2023-01-03T02:41:06.465Z,0
2023-01-03T02:42:07.067Z,0
2023-01-03T02:43:07.660Z,0
2023-01-03T02:44:08.252Z,0
2023-01-03T02:45:08.843Z,0
2023-01-03T02:46:09.482Z,0
2023-01-03T02:47:10.066Z,0
2023-01-03T02:48:10.739Z,0
2023-01-03T02:49:11.267Z,0
2023-01-03T02:50:11.863Z,0
2023-01-03T02:51:12.475Z,0
2023-01-03T02:52:13.071Z,0
2023-01-03T02:53:13.667Z,0
2023-01-03T02:54:14.260Z,0
2023-01-03T02:55:14.855Z,0
2023-01-03T02:56:15.461Z,0
2023-01-03T02:57:16.051Z,0
2023-01-03T02:58:16.727Z,0
2023-01-03T02:59:17.264Z,0
2023-01-03T03:00:17.859Z,0
2023-01-03T03:01:18.547Z,0
2023-01-03T03:02:19.182Z,0
2023-01-03T03:03:19.907Z,0
2023-01-03T03:04:20.421Z,0
2023-01-03T03:05:21.015Z,0
2023-01-03T03:06:21.611Z,0
2023-01-03T03:07:22.203Z,0
2023-01-03T03:08:22.799Z,0
2023-01-03T03:09:23.391Z,0
2023-01-03T03:10:23.988Z,0
2023-01-03T03:11:24.583Z,0
2023-01-03T03:12:25.184Z,0
2023-01-03T03:13:25.777Z,0
2023-01-03T03:14:26.369Z,0
2023-01-03T03:15:26.964Z,0
2023-01-03T03:16:27.584Z,0
2023-01-03T03:17:28.161Z,0
2023-01-03T03:18:28.765Z,0
2023-01-03T03:19:29.348Z,0
2023-01-03T03:20:29.940Z,0
2023-01-03T03:21:30.545Z,0
2023-01-03T03:22:31.140Z,0
2023-01-03T03:23:31.742Z,0
2023-01-03T03:24:32.337Z,0
2023-01-03T03:25:32.932Z,0
2023-01-03T03:26:33.527Z,0
2023-01-03T03:27:34.122Z,0
2023-01-03T03:28:34.722Z,0
2023-01-03T03:29:35.333Z,0
2023-01-03T03:30:35.951Z,0
2023-01-03T03:31:36.591Z,0
2023-01-03T03:32:37.144Z,0
2023-01-03T03:33:37.739Z,0
2023-01-03T03:34:38.329Z,0
2023-01-03T03:35:38.965Z,0
2023-01-03T03:36:39.538Z,0
2023-01-03T03:37:40.134Z,0
2023-01-03T03:38:40.727Z,0
2023-01-03T03:39:41.321Z,0
2023-01-03T03:40:41.937Z,0
2023-01-03T03:41:42.528Z,0
2023-01-03T03:42:43.130Z,0
2023-01-03T03:43:43.751Z,0
2023-01-03T03:44:44.344Z,0
2023-01-03T03:45:44.948Z,0
2023-01-03T03:46:52.403Z,0
2023-01-03T03:47:46.150Z,0
2023-01-03T03:48:46.763Z,0
2023-01-03T03:49:47.367Z,0
2023-01-03T03:50:47.953Z,0
2023-01-03T03:51:48.543Z,0
2023-01-03T03:52:49.145Z,0
2023-01-03T03:53:49.741Z,0
2023-01-03T03:54:50.331Z,0
2023-01-03T03:55:50.951Z,0
2023-01-03T03:56:51.545Z,0
2023-01-03T03:57:52.139Z,0
2023-01-03T03:58:52.751Z,0
2023-01-03T03:59:53.369Z,0
2023-01-03T04:00:53.949Z,0
2023-01-03T04:01:54.736Z,0
2023-01-03T04:02:55.591Z,0
2023-01-03T04:03:56.230Z,0
2023-01-03T04:04:56.821Z,0
2023-01-03T04:05:57.413Z,0
2023-01-03T04:06:58.008Z,0
2023-01-03T04:07:58.603Z,0
2023-01-03T04:08:59.201Z,0
2023-01-03T04:09:59.793Z,0
2023-01-03T04:11:00.413Z,0
2023-01-03T04:12:01.007Z,0
2023-01-03T04:13:01.593Z,0
2023-01-03T04:14:02.283Z,0
2023-01-03T04:15:02.837Z,0
2023-01-03T04:16:03.476Z,0
2023-01-03T04:17:04.018Z,0
2023-01-03T04:18:04.612Z,0
2023-01-03T04:19:05.209Z,0
2023-01-03T04:20:05.826Z,0
2023-01-03T04:21:06.421Z,0
2023-01-03T04:22:07.036Z,0
2023-01-03T04:23:07.629Z,0
2023-01-03T04:24:08.253Z,0
2023-01-03T04:25:08.842Z,0
2023-01-03T04:26:09.437Z,0
2023-01-03T04:27:10.066Z,0
2023-01-03T04:28:10.641Z,0
2023-01-03T04:29:11.310Z,0
2023-01-03T04:30:11.844Z,0
2023-01-03T04:31:12.504Z,0
2023-01-03T04:32:13.169Z,0
2023-01-03T04:33:13.752Z,0
2023-01-03T04:34:14.346Z,0
2023-01-03T04:35:14.942Z,0
2023-01-03T04:36:15.538Z,0
2023-01-03T04:37:16.131Z,0
2023-01-03T04:38:16.729Z,0
2023-01-03T04:39:17.343Z,0
2023-01-03T04:40:17.956Z,0
2023-01-03T04:41:18.551Z,0
2023-01-03T04:42:19.144Z,0
2023-01-03T04:43:19.748Z,0
2023-01-03T04:44:20.332Z,0
2023-01-03T04:45:20.926Z,0
2023-01-03T04:46:21.605Z,0
2023-01-03T04:47:22.132Z,0
2023-01-03T04:48:22.733Z,0
2023-01-03T04:49:23.318Z,0
2023-01-03T04:50:23.916Z,0
2023-01-03T04:51:24.513Z,0
2023-01-03T04:52:25.099Z,0
2023-01-03T04:53:25.698Z,0
2023-01-03T04:54:26.311Z,0
2023-01-03T04:55:26.909Z,0
2023-01-03T04:56:27.497Z,0
2023-01-03T04:57:28.092Z,0
2023-01-03T04:58:28.687Z,0
2023-01-03T04:59:29.279Z,0
2023-01-03T05:00:29.892Z,0
2023-01-03T05:01:30.562Z,0
2023-01-03T05:02:31.290Z,0
2023-01-03T05:03:31.843Z,0
2023-01-03T05:04:32.497Z,0
2023-01-03T05:05:33.095Z,0
2023-01-03T05:06:33.695Z,0
2023-01-03T05:07:34.283Z,0
2023-01-03T05:08:34.898Z,0
2023-01-03T05:09:35.544Z,0
2023-01-03T05:10:36.093Z,0
2023-01-03T05:11:36.689Z,0
2023-01-03T05:12:37.283Z,0
2023-01-03T05:13:37.877Z,0
2023-01-03T05:14:38.473Z,0
2023-01-03T05:15:39.087Z,0
2023-01-03T05:16:39.703Z,0
2023-01-03T05:17:40.295Z,0
2023-01-03T05:18:40.868Z,0
2023-01-03T05:19:45.398Z,0
2023-01-03T05:20:43.069Z,0
2023-01-03T05:21:43.662Z,0
2023-01-03T05:22:44.257Z,0
2023-01-03T05:23:44.851Z,0
2023-01-03T05:24:45.450Z,0
2023-01-03T05:25:46.048Z,0
2023-01-03T05:26:46.634Z,0
2023-01-03T05:27:47.229Z,0
2023-01-03T05:28:47.829Z,0
2023-01-03T05:29:48.446Z,0
2023-01-03T05:30:49.033Z,0
2023-01-03T05:31:49.698Z,0
2023-01-03T05:32:50.236Z,0
2023-01-03T05:33:50.840Z,0
2023-01-03T05:34:51.430Z,0
2023-01-03T05:35:52.015Z,0
2023-01-03T05:36:52.621Z,0
2023-01-03T05:37:53.216Z,0
2023-01-03T05:38:53.797Z,0
2023-01-03T05:39:54.394Z,0
2023-01-03T05:40:54.987Z,0
2023-01-03T05:41:55.586Z,0
2023-01-03T05:42:56.197Z,0
2023-01-03T05:43:56.790Z,0
2023-01-03T05:44:57.384Z,0
2023-01-03T05:45:58.051Z,0
2023-01-03T05:46:58.622Z,0
2023-01-03T05:47:59.207Z,0
2023-01-03T05:48:59.803Z,0
2023-01-03T05:50:00.415Z,0
2023-01-03T05:51:00.996Z,0
2023-01-03T05:52:01.588Z,0
2023-01-03T05:53:02.186Z,0
2023-01-03T05:54:02.780Z,0
2023-01-03T05:55:03.391Z,0
2023-01-03T05:56:03.980Z,0
2023-01-03T05:57:04.584Z,0
2023-01-03T05:58:05.184Z,0
2023-01-03T05:59:05.790Z,0
2023-01-03T06:00:06.404Z,0
2023-01-03T06:01:07.091Z,0
2023-01-03T06:02:07.786Z,0
2023-01-03T06:03:08.528Z,0
2023-01-03T06:04:09.170Z,0
2023-01-03T06:05:09.730Z,0
2023-01-03T06:06:10.357Z,0
2023-01-03T06:07:10.955Z,0
2023-01-03T06:08:11.556Z,0
2023-01-03T06:09:12.164Z,0
2023-01-03T06:10:12.748Z,0
2023-01-03T06:11:13.361Z,0
2023-01-03T06:12:13.969Z,0
2023-01-03T06:13:14.571Z,0
2023-01-03T06:14:15.156Z,0
2023-01-03T06:15:15.760Z,0
2023-01-03T06:16:21.409Z,0
2023-01-03T06:17:18.030Z,0
2023-01-03T06:18:18.624Z,0
2023-01-03T06:19:19.218Z,0
2023-01-03T06:20:19.809Z,0
2023-01-03T06:21:20.401Z,0
2023-01-03T06:22:21.020Z,0
2023-01-03T06:23:21.592Z,0
2023-01-03T06:24:22.189Z,0
2023-01-03T06:25:22.837Z,0
2023-01-03T06:26:23.420Z,0
2023-01-03T06:27:23.977Z,0
2023-01-03T06:28:24.574Z,0
2023-01-03T06:29:25.169Z,0
2023-01-03T06:30:25.908Z,0
2023-01-03T06:31:26.572Z,0
2023-01-03T06:32:27.163Z,0
2023-01-03T06:33:27.777Z,0
2023-01-03T06:34:28.372Z,0
2023-01-03T06:35:28.966Z,0
2023-01-03T06:36:29.560Z,0
2023-01-03T06:37:30.157Z,0
2023-01-03T06:38:30.749Z,0
2023-01-03T06:39:31.344Z,0
2023-01-03T06:40:38.058Z,0
2023-01-03T06:41:32.555Z,0
2023-01-03T06:42:33.176Z,0
2023-01-03T06:43:33.757Z,0
2023-01-03T06:44:34.359Z,0
2023-01-03T06:45:35.045Z,0
2023-01-03T06:46:35.674Z,0
2023-01-03T06:47:36.319Z,0
2023-01-03T06:48:36.911Z,0
2023-01-03T06:49:37.514Z,0
2023-01-03T06:50:38.129Z,0
2023-01-03T06:51:38.720Z,0
2023-01-03T06:52:39.324Z,0
2023-01-03T06:53:39.912Z,0
2023-01-03T06:54:40.516Z,0
2023-01-03T06:55:41.101Z,0
2023-01-03T06:56:41.697Z,0
2023-01-03T06:57:42.293Z,0
2023-01-03T06:58:42.882Z,0
2023-01-03T06:59:43.487Z,0
2023-01-03T07:00:44.125Z,0
2023-01-03T07:01:44.879Z,0
2023-01-03T07:02:45.619Z,0
2023-01-03T07:03:46.223Z,0
2023-01-03T07:04:46.884Z,0
2023-01-03T07:05:47.470Z,0
2023-01-03T07:06:48.058Z,0
2023-01-03T07:07:48.654Z,0
2023-01-03T07:08:49.251Z,0
2023-01-03T07:09:49.863Z,0
2023-01-03T07:10:50.463Z,0
2023-01-03T07:11:51.036Z,0
2023-01-03T07:12:51.631Z,0
2023-01-03T07:13:52.236Z,0
2023-01-03T07:14:52.826Z,0
2023-01-03T07:15:53.493Z,0
2023-01-03T07:16:54.079Z,0
2023-01-03T07:17:54.679Z,0
2023-01-03T07:18:55.756Z,5
2023-01-03T07:19:56.414Z,5
2023-01-03T07:20:57.028Z,5
2023-01-03T07:21:57.626Z,5
2023-01-03T07:22:58.242Z,5
2023-01-03T07:23:58.842Z,5
2023-01-03T07:24:59.458Z,11
2023-01-03T07:26:00.052Z,11
2023-01-03T07:27:00.649Z,11
2023-01-03T07:28:05.968Z,11
2023-01-03T07:29:02.855Z,11
2023-01-03T07:30:03.465Z,16
2023-01-03T07:31:04.098Z,16
2023-01-03T07:32:04.684Z,16
2023-01-03T07:33:05.283Z,22
2023-01-03T07:34:05.908Z,22
2023-01-03T07:35:06.519Z,22
2023-01-03T07:36:11.593Z,28
2023-01-03T07:37:08.703Z,28
2023-01-03T07:38:09.303Z,33
2023-01-03T07:39:09.915Z,33
2023-01-03T07:40:10.527Z,33
2023-01-03T07:41:11.115Z,39
2023-01-03T07:42:11.757Z,45
2023-01-03T07:43:12.326Z,45
2023-01-03T07:44:12.926Z,50
2023-01-03T07:45:13.558Z,50
2023-01-03T07:46:14.209Z,56
2023-01-03T07:47:14.753Z,56
2023-01-03T07:48:15.355Z,61
2023-01-03T07:49:15.955Z,61
2023-01-03T07:50:16.550Z,67
2023-01-03T07:51:17.148Z,67
2023-01-03T07:52:17.757Z,73
2023-01-03T07:53:18.351Z,73
2023-01-03T07:54:18.968Z,78
2023-01-03T07:55:19.563Z,78
2023-01-03T07:56:20.160Z,84
2023-01-03T07:57:20.770Z,90
2023-01-03T07:58:21.357Z,95
2023-01-03T07:59:21.986Z,95
2023-01-03T08:00:22.591Z,106
2023-01-03T08:01:23.327Z,112
2023-01-03T08:02:24.099Z,112
2023-01-03T08:03:24.717Z,118
2023-01-03T08:04:25.358Z,118
2023-01-03T08:05:25.921Z,129
2023-01-03T08:06:26.534Z,123
2023-01-03T08:07:27.120Z,129
2023-01-03T08:08:27.711Z,135
2023-01-03T08:09:28.323Z,140
2023-01-03T08:10:28.909Z,140
2023-01-03T08:11:29.509Z,146
2023-01-03T08:12:30.108Z,151
2023-01-03T08:13:30.730Z,157
2023-01-03T08:14:31.346Z,157
2023-01-03T08:15:31.943Z,163
2023-01-03T08:16:32.620Z,163
2023-01-03T08:17:33.220Z,168
2023-01-03T08:18:33.829Z,174
2023-01-03T08:19:37.709Z,174
2023-01-03T08:20:36.017Z,180
2023-01-03T08:21:36.611Z,191
2023-01-03T08:22:37.210Z,196
2023-01-03T08:23:37.811Z,196
2023-01-03T08:24:38.415Z,202
2023-01-03T08:25:39.028Z,202
2023-01-03T08:26:39.631Z,202
2023-01-03T08:27:43.917Z,208
2023-01-03T08:28:41.823Z,202
2023-01-03T08:29:42.434Z,208
2023-01-03T08:30:43.026Z,213
2023-01-03T08:31:43.675Z,219
2023-01-03T08:32:44.276Z,219
2023-01-03T08:33:44.890Z,230
2023-01-03T08:34:45.487Z,230
2023-01-03T08:35:46.086Z,236
2023-01-03T08:36:46.684Z,236
2023-01-03T08:37:47.282Z,247
2023-01-03T08:38:47.881Z,247
2023-01-03T08:39:48.481Z,241
2023-01-03T08:40:49.115Z,241
2023-01-03T08:41:49.698Z,247
2023-01-03T08:42:50.300Z,258
2023-01-03T08:43:50.906Z,258
2023-01-03T08:44:51.502Z,270
2023-01-03T08:45:52.094Z,292
2023-01-03T08:46:52.746Z,286
2023-01-03T08:47:53.328Z,281
2023-01-03T08:48:53.939Z,292
2023-01-03T08:49:54.526Z,281
2023-01-03T08:50:55.125Z,275
2023-01-03T08:51:55.754Z,292
2023-01-03T08:52:56.345Z,281
2023-01-03T08:53:56.945Z,292
2023-01-03T08:54:57.545Z,286
2023-01-03T08:55:58.166Z,303
2023-01-03T08:56:58.749Z,315
2023-01-03T08:57:59.343Z,298
2023-01-03T08:58:59.940Z,286
2023-01-03T09:00:00.555Z,315
2023-01-03T09:01:01.139Z,331
2023-01-03T09:02:02.010Z,315
2023-01-03T09:03:03.095Z,331
2023-01-03T09:04:03.397Z,326
2023-01-03T09:05:03.946Z,326
2023-01-03T09:06:04.538Z,337
2023-01-03T09:07:05.143Z,331
2023-01-03T09:08:05.737Z,326
2023-01-03T09:09:06.356Z,309
2023-01-03T09:10:06.963Z,320
2023-01-03T09:11:07.582Z,331
2023-01-03T09:12:08.197Z,348
2023-01-03T09:13:08.820Z,365
2023-01-03T09:14:09.410Z,410
2023-01-03T09:15:10.044Z,388
2023-01-03T09:16:10.655Z,365
2023-01-03T09:17:11.260Z,382
2023-01-03T09:18:11.860Z,399
2023-01-03T09:19:12.456Z,427
2023-01-03T09:20:13.053Z,433
2023-01-03T09:21:13.653Z,399
2023-01-03T09:22:14.261Z,405
2023-01-03T09:23:14.883Z,421
2023-01-03T09:24:15.463Z,427
2023-01-03T09:25:16.057Z,466
2023-01-03T09:26:16.679Z,540
2023-01-03T09:27:17.300Z,646
2023-01-03T09:28:17.895Z,703
2023-01-03T09:29:18.496Z,736
2023-01-03T09:30:19.097Z,748
2023-01-03T09:31:19.758Z,765
2023-01-03T09:32:20.336Z,781
2023-01-03T09:33:20.927Z,798
2023-01-03T09:34:21.515Z,838
2023-01-03T09:35:22.135Z,832
2023-01-03T09:36:22.756Z,826
2023-01-03T09:37:23.388Z,832
2023-01-03T09:38:23.991Z,860
2023-01-03T09:39:24.577Z,939
2023-01-03T09:40:25.177Z,995
2023-01-03T09:41:25.815Z,928
2023-01-03T09:42:26.425Z,860
2023-01-03T09:43:27.025Z,860
2023-01-03T09:44:27.617Z,888
2023-01-03T09:45:28.220Z,894
2023-01-03T09:46:28.866Z,883
2023-01-03T09:47:29.420Z,888
2023-01-03T09:48:30.036Z,883
2023-01-03T09:49:30.636Z,883
2023-01-03T09:50:56.702Z,883
2023-01-03T09:51:32.735Z,888
2023-01-03T09:52:33.332Z,911
2023-01-03T09:53:33.931Z,905
2023-01-03T09:54:34.541Z,922
2023-01-03T09:55:35.132Z,939
2023-01-03T09:56:35.733Z,967
2023-01-03T09:57:36.390Z,961
2023-01-03T09:58:37.000Z,967
2023-01-03T09:59:37.583Z,956
2023-01-03T10:00:38.253Z,950
2023-01-03T10:01:38.963Z,961
2023-01-03T10:02:39.559Z,961
2023-01-03T10:03:43.323Z,967
2023-01-03T10:04:41.792Z,961
2023-01-03T10:05:42.406Z,961
2023-01-03T10:06:43.031Z,973
2023-01-03T10:07:43.627Z,978
2023-01-03T10:08:44.227Z,978
2023-01-03T10:09:44.859Z,995
2023-01-03T10:10:45.455Z,1012
2023-01-03T10:11:46.053Z,1040
2023-01-03T10:12:46.656Z,1074
2023-01-03T10:13:47.253Z,1096
2023-01-03T10:14:47.863Z,1119
2023-01-03T10:15:48.457Z,1141
2023-01-03T10:16:49.117Z,1181
2023-01-03T10:17:49.711Z,1203
2023-01-03T10:18:50.313Z,1231
2023-01-03T10:19:50.937Z,1226
2023-01-03T10:20:51.545Z,1243
2023-01-03T10:21:52.142Z,1254
2023-01-03T10:22:52.757Z,1271
2023-01-03T10:23:53.341Z,1305
2023-01-03T10:24:53.941Z,1310
2023-01-03T10:25:54.545Z,1338
2023-01-03T10:26:55.148Z,1378
2023-01-03T10:27:55.768Z,1395
2023-01-03T10:28:56.368Z,1406
2023-01-03T10:29:56.973Z,1378
2023-01-03T10:31:03.615Z,1378
2023-01-03T10:31:59.232Z,1338
2023-01-03T10:32:59.823Z,1305
2023-01-03T10:34:00.436Z,1276
2023-01-03T10:35:01.021Z,1254
2023-01-03T10:36:01.629Z,1243
2023-01-03T10:37:02.238Z,1260
2023-01-03T10:38:02.855Z,1260
2023-01-03T10:39:03.466Z,1282
2023-01-03T10:40:04.069Z,1299
2023-01-03T10:41:04.668Z,1316
2023-01-03T10:42:05.266Z,1305
2023-01-03T10:43:05.869Z,1293
2023-01-03T10:44:06.475Z,1265
2023-01-03T10:45:07.073Z,1248
2023-01-03T10:46:07.733Z,1248
2023-01-03T10:47:08.282Z,1254
2023-01-03T10:48:08.903Z,1276
2023-01-03T10:50:11.099Z,1327
2023-01-03T10:51:11.699Z,1338
2023-01-03T10:52:12.316Z,1344
2023-01-03T10:53:12.923Z,1361
2023-01-03T10:54:13.544Z,1350
2023-01-03T10:55:14.145Z,1338
2023-01-03T10:56:14.738Z,1350
2023-01-03T10:57:15.339Z,1327
2023-01-03T10:58:15.936Z,1316
2023-01-03T10:59:16.560Z,1305
2023-01-03T11:00:17.138Z,1299
2023-01-03T11:01:17.851Z,1276
2023-01-03T11:02:18.603Z,1271
2023-01-03T11:03:19.360Z,1265
2023-01-03T11:04:19.969Z,1282
2023-01-03T11:05:20.530Z,1299
2023-01-03T11:06:21.155Z,1327
2023-01-03T11:07:21.772Z,1355
2023-01-03T11:08:22.379Z,1372
2023-01-03T11:09:22.973Z,1378
2023-01-03T11:10:23.571Z,1395
2023-01-03T11:11:24.192Z,1411
2023-01-03T11:12:24.793Z,1423
2023-01-03T11:13:25.411Z,1451
2023-01-03T11:14:26.019Z,1496
2023-01-03T11:15:26.631Z,1524
2023-01-03T11:16:27.274Z,1541
2023-01-03T11:17:27.832Z,1530
2023-01-03T11:18:28.433Z,1513
2023-01-03T11:19:29.054Z,1507
2023-01-03T11:20:29.668Z,1530
2023-01-03T11:21:30.295Z,1591
2023-01-03T11:22:35.607Z,1648
2023-01-03T11:23:32.483Z,1681
2023-01-03T11:24:33.108Z,1676
2023-01-03T11:25:33.725Z,1659
2023-01-03T11:26:34.318Z,1648
2023-01-03T11:27:34.918Z,1625
2023-01-03T11:28:35.673Z,1597
2023-01-03T11:29:36.299Z,1558
2023-01-03T11:30:36.883Z,1541
2023-01-03T11:31:37.807Z,1552
2023-01-03T11:32:38.389Z,1603
2023-01-03T11:33:38.979Z,1659
2023-01-03T11:35:12.102Z,1715
2023-01-03T11:35:41.182Z,1760
2023-01-03T11:36:41.772Z,1760
2023-01-03T11:37:42.378Z,1732
2023-01-03T11:38:42.967Z,1749
2023-01-03T11:39:43.571Z,1760
2023-01-03T11:40:44.169Z,1805
2023-01-03T11:41:44.768Z,1839
2023-01-03T11:42:45.383Z,1923
2023-01-03T11:43:45.985Z,1963
2023-01-03T11:44:46.581Z,1963
2023-01-03T11:45:49.360Z,1985
2023-01-03T11:46:48.874Z,1991
2023-01-03T11:47:49.466Z,1985
2023-01-03T11:48:50.079Z,1951
2023-01-03T11:49:50.676Z,1867
2023-01-03T11:50:51.285Z,1524
2023-01-03T11:51:51.894Z,781
2023-01-03T11:52:52.507Z,703
2023-01-03T11:53:53.089Z,731
2023-01-03T11:54:53.869Z,798
2023-01-03T11:55:54.327Z,703
2023-01-03T11:56:54.921Z,1181
2023-01-03T11:57:55.520Z,1530
2023-01-03T11:58:56.125Z,1355
2023-01-03T11:59:56.722Z,1074
2023-01-03T12:00:57.324Z,1035
2023-01-03T12:01:58.005Z,826
2023-01-03T12:02:58.664Z,1080
2023-01-03T12:03:59.328Z,472
2023-01-03T12:04:59.914Z,483
2023-01-03T12:06:00.521Z,495
2023-01-03T12:07:21.876Z,506
2023-01-03T12:08:01.722Z,500
2023-01-03T12:09:02.316Z,489
2023-01-03T12:10:02.921Z,455
2023-01-03T12:11:03.514Z,410
2023-01-03T12:12:04.113Z,371
2023-01-03T12:13:04.708Z,326
2023-01-03T12:14:05.349Z,286
2023-01-03T12:15:05.919Z,236
2023-01-03T12:16:06.568Z,208
2023-01-03T12:17:07.156Z,219
2023-01-03T12:18:07.755Z,303
2023-01-03T12:19:12.257Z,348
2023-01-03T12:20:09.952Z,331
2023-01-03T12:21:10.545Z,360
2023-01-03T12:22:11.142Z,433
2023-01-03T12:23:11.744Z,500
2023-01-03T12:24:12.356Z,523
2023-01-03T12:25:12.955Z,506
2023-01-03T12:26:13.580Z,511
2023-01-03T12:27:14.191Z,551
2023-01-03T12:28:14.798Z,517
2023-01-03T12:29:15.386Z,410
2023-01-03T12:30:15.995Z,410
2023-01-03T12:31:16.672Z,450
2023-01-03T12:32:17.277Z,455
2023-01-03T12:33:17.875Z,489
2023-01-03T12:34:18.478Z,585
2023-01-03T12:35:19.077Z,669
2023-01-03T12:36:19.676Z,680
2023-01-03T12:37:20.275Z,663
2023-01-03T12:38:20.878Z,658
2023-01-03T12:39:21.765Z,613
2023-01-03T12:40:23.081Z,568
2023-01-03T12:41:23.704Z,545
2023-01-03T12:42:24.322Z,545
2023-01-03T12:43:24.913Z,523
2023-01-03T12:44:25.520Z,483
2023-01-03T12:45:31.137Z,478
2023-01-03T12:46:27.751Z,483
2023-01-03T12:47:28.309Z,500
2023-01-03T12:48:28.910Z,511
2023-01-03T12:49:29.570Z,517
2023-01-03T12:50:30.118Z,495
2023-01-03T12:51:30.747Z,478
2023-01-03T12:52:31.359Z,489
2023-01-03T12:53:31.959Z,511
2023-01-03T12:54:32.577Z,528
2023-01-03T12:55:33.175Z,556
2023-01-03T12:56:33.795Z,624
2023-01-03T12:57:34.372Z,658
2023-01-03T12:58:39.347Z,691
2023-01-03T12:59:36.565Z,590
2023-01-03T13:00:37.180Z,528
2023-01-03T13:01:37.921Z,517
2023-01-03T13:02:38.642Z,545
2023-01-03T13:03:39.153Z,618
2023-01-03T13:04:39.731Z,596
2023-01-03T13:05:40.316Z,601
2023-01-03T13:06:40.914Z,607
2023-01-03T13:07:41.514Z,646
2023-01-03T13:08:42.112Z,781
2023-01-03T13:09:42.709Z,596
2023-01-03T13:10:43.308Z,601
2023-01-03T13:11:43.941Z,1102
2023-01-03T13:12:44.529Z,585
2023-01-03T13:13:45.124Z,556
2023-01-03T13:14:45.724Z,540
2023-01-03T13:15:46.403Z,556
2023-01-03T13:16:47.029Z,523
2023-01-03T13:17:47.548Z,382
2023-01-03T13:18:48.144Z,348
2023-01-03T13:19:48.742Z,343
2023-01-03T13:20:50.308Z,416
2023-01-03T13:21:50.929Z,388
2023-01-03T13:22:51.536Z,371
2023-01-03T13:23:52.134Z,360
2023-01-03T13:24:52.742Z,337
2023-01-03T13:25:53.317Z,286
2023-01-03T13:26:53.917Z,253
2023-01-03T13:27:54.514Z,275
2023-01-03T13:28:55.225Z,298
2023-01-03T13:29:55.743Z,258
2023-01-03T13:30:56.391Z,247
2023-01-03T13:31:56.957Z,275
2023-01-03T13:32:57.555Z,264
2023-01-03T13:33:58.166Z,225
2023-01-03T13:34:58.747Z,196
2023-01-03T13:35:59.356Z,208
2023-01-03T13:36:59.969Z,196
2023-01-03T13:38:00.570Z,185
2023-01-03T13:39:01.186Z,151
2023-01-03T13:40:01.798Z,157
2023-01-03T13:41:19.149Z,135
2023-01-03T13:42:03.997Z,135
2023-01-03T13:43:04.567Z,129
2023-01-03T13:44:05.167Z,106
2023-01-03T13:45:05.761Z,106
2023-01-03T13:46:06.446Z,101
2023-01-03T13:47:07.092Z,95
2023-01-03T13:48:07.669Z,95
2023-01-03T13:49:08.270Z,90
2023-01-03T13:50:08.867Z,84
2023-01-03T13:51:09.486Z,95
2023-01-03T13:52:10.080Z,90
2023-01-03T13:53:10.709Z,95
2023-01-03T13:54:11.273Z,129
2023-01-03T13:55:11.875Z,135
2023-01-03T13:56:12.475Z,129
2023-01-03T13:57:13.070Z,140
2023-01-03T13:58:13.668Z,135
2023-01-03T13:59:14.277Z,123
2023-01-03T14:00:14.865Z,140
2023-01-03T14:01:15.601Z,140
2023-01-03T14:02:16.318Z,129
2023-01-03T14:03:17.060Z,140
2023-01-03T14:04:17.704Z,196
2023-01-03T14:05:18.289Z,225
2023-01-03T14:06:18.888Z,196
2023-01-03T14:07:19.526Z,163
2023-01-03T14:08:20.127Z,168
2023-01-03T14:09:20.723Z,180
2023-01-03T14:10:21.347Z,168
2023-01-03T14:11:21.936Z,140
2023-01-03T14:12:22.540Z,112
2023-01-03T14:13:23.133Z,101
2023-01-03T14:14:23.731Z,95
2023-01-03T14:15:26.730Z,95
2023-01-03T14:16:26.003Z,95
2023-01-03T14:17:26.571Z,106
2023-01-03T14:18:27.172Z,112
2023-01-03T14:19:27.769Z,112
2023-01-03T14:20:28.376Z,112
2023-01-03T14:21:28.971Z,106
2023-01-03T14:22:30.359Z,112
2023-01-03T14:23:59.214Z,118
2023-01-03T14:24:32.635Z,123